Goulphar — FJVY — position and weather

sailwx.info

Track history (hours):
 
Tides and Currents Weather Stations Pressure Air Temp Water Temp Dewpoint Dewpoint Depression Visibility Wind Speed Wind Dir Waves Ship Positions

Goulphar

Last reported at 2017-Sep-22 02:00 UTC. Time now 2017-Sep-22 22:24 UTC.
Position N 47°29' W 003°07'.

Length 36 m; draft 1.8 m.

Type: Cargo ship. MMSI: 228082800.

Date/timePositionNaut miles runAvg speedWind from/ knotsBaromVisibWave heightAir tempDewpointWater temp
2017-Sep-22 02:00N 47°29' W 003°07'0 0.0
2017-Sep-22 01:30N 47°29' W 003°07'0 0.0
2017-Sep-22 01:00N 47°29' W 003°07'0 0.0
2017-Sep-22 00:30N 47°29' W 003°07'0 0.0
2017-Sep-22 00:00N 47°29' W 003°07'0 0.0
2017-Sep-21 23:30N 47°29' W 003°07'0 0.0
2017-Sep-21 23:00N 47°29' W 003°07'0 0.0
2017-Sep-21 22:30N 47°29' W 003°07'0 0.0
2017-Sep-21 22:00N 47°29' W 003°07'0 0.0
2017-Sep-21 21:30N 47°29' W 003°07'0 0.0
2017-Sep-21 21:00N 47°29' W 003°07'0 0.0
2017-Sep-21 20:30N 47°29' W 003°07'0 0.0
2017-Sep-21 20:00N 47°29' W 003°07'0 0.0
2017-Sep-21 19:30N 47°29' W 003°07'0 0.0
2017-Sep-21 19:00N 47°29' W 003°07'0 0.0
2017-Sep-21 18:30N 47°29' W 003°07'0 0.0
2017-Sep-21 18:00N 47°29' W 003°07'0 0.0
2017-Sep-21 17:30N 47°29' W 003°07'0 0.0
2017-Sep-21 17:00N 47°29' W 003°07'0 0.0
2017-Sep-21 16:30N 47°29' W 003°07'0 0.0
2017-Sep-21 16:00N 47°29' W 003°07'0 0.0
2017-Sep-21 15:30N 47°29' W 003°07'0 0.0
2017-Sep-21 15:00N 47°29' W 003°07'4 8.0
2017-Sep-21 14:30N 47°25' W 003°08'3 6.8
2017-Sep-21 14:00N 47°21' W 003°09'0 0.0
2017-Sep-21 13:29N 47°21' W 003°09'0 0.0
2017-Sep-21 12:59N 47°21' W 003°09'0 0.0
2017-Sep-21 12:26N 47°21' W 003°09'0 0.0
2017-Sep-21 11:59N 47°21' W 003°09'0 0.0
2017-Sep-21 11:29N 47°21' W 003°09'0 0.0
2017-Sep-21 10:59N 47°21' W 003°09'0 0.0
2017-Sep-21 10:29N 47°21' W 003°09'0 0.0
2017-Sep-21 09:59N 47°21' W 003°09'0 0.0
2017-Sep-21 09:29N 47°21' W 003°09'0 0.0
2017-Sep-21 08:59N 47°21' W 003°09'0 0.0
2017-Sep-21 08:26N 47°21' W 003°09'0 0.0
2017-Sep-21 07:56N 47°21' W 003°09'0 0.0
2017-Sep-21 07:29N 47°21' W 003°09'0 0.1
2017-Sep-21 07:01N 47°21' W 003°09'1 1.1
2017-Sep-21 06:30N 47°21' W 003°09'4 8.6
2017-Sep-21 06:01N 47°25' W 003°09'4 7.4
2017-Sep-21 05:30N 47°29' W 003°07'0 0.1
2017-Sep-21 05:01N 47°29' W 003°07'4 8.8
2017-Sep-21 04:30N 47°24' W 003°08'3 7.0
2017-Sep-21 04:00N 47°21' W 003°09'0 0.0
2017-Sep-21 03:30N 47°21' W 003°09'0 0.0
2017-Sep-20 17:54N 47°21' W 003°09'0 0.0
2017-Sep-20 17:30N 47°21' W 003°09'0 0.0
2017-Sep-20 17:00N 47°21' W 003°09'0 0.0
2017-Sep-20 16:26N 47°21' W 003°09'0 0.0
2017-Sep-20 13:49N 47°21' W 003°09'0 1.4
2017-Sep-20 13:30N 47°21' W 003°09'1 2.7
2017-Sep-20 13:00N 47°22' W 003°08'4 8.0
2017-Sep-20 12:31N 47°25' W 003°05'3 6.6
2017-Sep-20 12:00N 47°27' W 003°01'4 8.9
2017-Sep-20 11:30N 47°30' W 002°56'510.7
2017-Sep-20 11:00N 47°35' W 002°52'4 8.4
2017-Sep-20 10:30N 47°37' W 002°47'1 2.6
2017-Sep-20 10:00N 47°38' W 002°46'0 0.0
2017-Sep-20 09:30N 47°38' W 002°46'0 0.0
2017-Sep-20 09:00N 47°38' W 002°46'0 0.0
2017-Sep-20 08:30N 47°38' W 002°46'0 0.0
2017-Sep-20 08:00N 47°38' W 002°46'0 0.0
2017-Sep-20 07:30N 47°38' W 002°46'0 0.0
2017-Sep-20 07:00N 47°38' W 002°46'0 0.0
2017-Sep-20 06:30N 47°38' W 002°46'0 0.0
2017-Sep-20 06:00N 47°38' W 002°46'0 0.0
2017-Sep-20 05:30N 47°38' W 002°46'0 0.0
2017-Sep-20 05:00N 47°38' W 002°46'0 0.0
2017-Sep-20 04:30N 47°38' W 002°46'0 0.0
2017-Sep-20 04:00N 47°38' W 002°46'0 0.0
2017-Sep-20 03:30N 47°38' W 002°46'0 0.0
2017-Sep-20 03:00N 47°38' W 002°46'0 0.0
2017-Sep-20 02:30N 47°38' W 002°46'0 0.0
2017-Sep-20 02:00N 47°38' W 002°46'0 0.0
2017-Sep-20 01:30N 47°38' W 002°46'0 0.0
2017-Sep-20 01:00N 47°38' W 002°46'0 0.0
2017-Sep-20 00:30N 47°38' W 002°46'0 0.0
2017-Sep-20 00:00N 47°38' W 002°46'0 0.0
2017-Sep-19 23:30N 47°38' W 002°46'0 0.0
2017-Sep-19 23:00N 47°38' W 002°46'0 0.0
2017-Sep-19 22:30N 47°38' W 002°46'0 0.0
2017-Sep-19 22:00N 47°38' W 002°46'0 0.0
2017-Sep-19 21:30N 47°38' W 002°46'0 0.0
2017-Sep-19 21:00N 47°38' W 002°46'0 0.0
2017-Sep-19 20:30N 47°38' W 002°46'0 0.0
2017-Sep-19 20:00N 47°38' W 002°46'0 0.0
2017-Sep-19 19:30N 47°38' W 002°46'0 0.0
2017-Sep-19 19:00N 47°38' W 002°46'0 0.0
2017-Sep-19 18:30N 47°38' W 002°46'0 0.0
2017-Sep-19 18:00N 47°38' W 002°46'0 0.0
2017-Sep-19 17:30N 47°38' W 002°46'0 0.0
2017-Sep-19 17:00N 47°38' W 002°46'0 0.0
2017-Sep-19 16:30N 47°38' W 002°46'0 0.0
2017-Sep-19 16:00N 47°38' W 002°46'0 0.0
2017-Sep-19 15:30N 47°38' W 002°46'0 0.0
2017-Sep-19 15:00N 47°38' W 002°46'0 0.0
2017-Sep-19 14:30N 47°38' W 002°46'0 0.0
2017-Sep-19 14:00N 47°38' W 002°46'0 0.0
2017-Sep-19 13:30N 47°38' W 002°46'0 0.0
2017-Sep-19 13:00N 47°38' W 002°46'0 0.0
2017-Sep-19 12:30N 47°38' W 002°46'0 0.0
2017-Sep-19 12:00N 47°38' W 002°46'0 0.0
2017-Sep-19 11:30N 47°38' W 002°46'0 0.0
2017-Sep-19 11:00N 47°38' W 002°46'0 0.0
2017-Sep-19 10:31N 47°38' W 002°46'0 0.0
2017-Sep-19 10:00N 47°38' W 002°46'0 0.0
2017-Sep-19 09:30N 47°38' W 002°46'0 0.0
2017-Sep-19 09:00N 47°38' W 002°46'0 0.0
2017-Sep-19 08:30N 47°38' W 002°46'0 0.0
2017-Sep-19 08:00N 47°38' W 002°46'0 0.0
2017-Sep-19 07:30N 47°38' W 002°46'0 0.0
2017-Sep-19 07:00N 47°38' W 002°46'0 0.0
2017-Sep-19 06:30N 47°38' W 002°46'0 0.0
2017-Sep-19 06:00N 47°38' W 002°46'2 3.9
2017-Sep-19 05:31N 47°37' W 002°48'5 9.1
2017-Sep-19 05:00N 47°34' W 002°53'5 9.8
2017-Sep-19 04:30N 47°30' W 002°57'510.6
2017-Sep-19 04:00N 47°27' W 003°03'510.3
2017-Sep-19 03:30N 47°22' W 003°07'2 4.4
2017-Sep-19 03:00N 47°21' W 003°09'0 0.0
2017-Sep-19 02:29N 47°21' W 003°09'0 0.0
2017-Sep-19 01:58N 47°21' W 003°09'0 0.0
2017-Sep-19 01:29N 47°21' W 003°09'0 0.0
2017-Sep-19 00:59N 47°21' W 003°09'0 0.0
2017-Sep-19 00:30N 47°21' W 003°09'0 0.0
2017-Sep-19 00:00N 47°21' W 003°09'0 0.0
2017-Sep-18 23:30N 47°21' W 003°09'0 0.0
2017-Sep-18 23:00N 47°21' W 003°09'0 0.0
2017-Sep-18 22:29N 47°21' W 003°09'0 0.0
2017-Sep-18 21:59N 47°21' W 003°09'0 0.0
2017-Sep-18 21:30N 47°21' W 003°09'0 0.0
2017-Sep-18 21:00N 47°21' W 003°09'0 0.0
2017-Sep-18 20:30N 47°21' W 003°09'0 0.0
2017-Sep-18 20:00N 47°21' W 003°09'0 0.0
2017-Sep-18 19:30N 47°21' W 003°09'0 0.0
2017-Sep-18 18:59N 47°21' W 003°09'0 0.0
2017-Sep-18 18:30N 47°21' W 003°09'0 0.0
2017-Sep-18 17:58N 47°21' W 003°09'0 0.0
2017-Sep-18 17:30N 47°21' W 003°09'0 0.0
2017-Sep-18 17:00N 47°21' W 003°09'0 0.0
2017-Sep-18 16:30N 47°21' W 003°09'0 0.3
2017-Sep-18 16:00N 47°21' W 003°09'4 8.9
2017-Sep-18 15:30N 47°24' W 003°05'510.4
2017-Sep-18 15:00N 47°28' W 003°00'5 9.6
2017-Sep-18 14:30N 47°32' W 002°56'3 6.9
2017-Sep-18 14:00N 47°35' W 002°53'4 7.6
2017-Sep-18 13:31N 47°37' W 002°48'2 4.2
2017-Sep-18 13:00N 47°38' W 002°46'0 0.0
2017-Sep-18 12:30N 47°38' W 002°46'0 0.0
2017-Sep-18 12:00N 47°38' W 002°46'0 0.0
2017-Sep-18 11:30N 47°38' W 002°46'0 0.0
2017-Sep-18 11:00N 47°38' W 002°46'0 0.0
2017-Sep-18 10:30N 47°38' W 002°46'0 0.0
2017-Sep-18 10:00N 47°38' W 002°46'0 0.0
2017-Sep-18 09:30N 47°38' W 002°46'0 0.0
2017-Sep-18 09:00N 47°38' W 002°46'0 0.0
2017-Sep-18 08:30N 47°38' W 002°46'0 0.0
2017-Sep-18 08:00N 47°38' W 002°46'0 0.0
2017-Sep-18 07:30N 47°38' W 002°46'0 0.0
2017-Sep-18 07:00N 47°38' W 002°46'0 0.0
2017-Sep-18 06:30N 47°38' W 002°46'0 0.0
2017-Sep-18 06:00N 47°38' W 002°46'0 0.0
2017-Sep-18 05:30N 47°38' W 002°46'0 0.0
2017-Sep-18 05:00N 47°38' W 002°46'0 0.0
2017-Sep-18 04:30N 47°38' W 002°46'0 0.0
2017-Sep-18 04:00N 47°38' W 002°46'0 0.0
2017-Sep-18 03:30N 47°38' W 002°46'0 0.0
2017-Sep-18 03:00N 47°38' W 002°46'0 0.0
2017-Sep-18 02:30N 47°38' W 002°46'0 0.0
2017-Sep-18 02:00N 47°38' W 002°46'0 0.0
2017-Sep-18 01:30N 47°38' W 002°46'0 0.0
2017-Sep-18 01:00N 47°38' W 002°46'0 0.0
2017-Sep-18 00:30N 47°38' W 002°46'0 0.0
2017-Sep-18 00:00N 47°38' W 002°46'0 0.0
2017-Sep-17 23:30N 47°38' W 002°46'0 0.0
2017-Sep-17 23:00N 47°38' W 002°46'0 0.0
2017-Sep-17 22:30N 47°38' W 002°46'0 0.0
2017-Sep-17 22:00N 47°38' W 002°46'0 0.0
2017-Sep-17 21:30N 47°38' W 002°46'0 0.0
2017-Sep-17 21:00N 47°38' W 002°46'0 0.0
2017-Sep-17 20:30N 47°38' W 002°46'0 0.0
2017-Sep-17 20:00N 47°38' W 002°46'0 0.0
2017-Sep-17 19:30N 47°38' W 002°46'0 0.0
2017-Sep-17 19:01N 47°38' W 002°46'0 0.0
2017-Sep-17 18:31N 47°38' W 002°46'0 0.0
2017-Sep-17 18:01N 47°38' W 002°46'0 0.0
2017-Sep-17 17:31N 47°38' W 002°46'0 0.0
2017-Sep-17 17:00N 47°38' W 002°46'0 0.0
2017-Sep-17 16:30N 47°38' W 002°46'0 0.0
2017-Sep-17 16:00N 47°38' W 002°46'0 0.0
2017-Sep-17 15:30N 47°38' W 002°46'0 0.0
2017-Sep-17 15:00N 47°38' W 002°46'0 0.0
2017-Sep-17 14:30N 47°38' W 002°46'0 0.0
2017-Sep-17 14:00N 47°38' W 002°46'0 0.0
2017-Sep-17 13:30N 47°38' W 002°46'0 0.0
2017-Sep-17 13:00N 47°38' W 002°46'0 0.0
2017-Sep-17 12:30N 47°38' W 002°46'0 0.0
2017-Sep-17 12:00N 47°38' W 002°46'0 0.0
2017-Sep-17 11:30N 47°38' W 002°46'0 0.0
2017-Sep-17 11:00N 47°38' W 002°46'0 0.0
2017-Sep-17 10:31N 47°38' W 002°46'0 0.0
2017-Sep-17 10:00N 47°38' W 002°46'0 0.0
2017-Sep-17 09:30N 47°38' W 002°46'0 0.0
2017-Sep-17 09:01N 47°38' W 002°46'0 0.0
2017-Sep-17 08:30N 47°38' W 002°46'0 0.0
2017-Sep-17 08:01N 47°38' W 002°46'0 0.0
2017-Sep-17 07:31N 47°38' W 002°46'0 0.0
2017-Sep-17 07:01N 47°38' W 002°46'0 0.0
2017-Sep-17 06:31N 47°38' W 002°46'0 0.0
2017-Sep-17 06:01N 47°38' W 002°46'0 0.0
2017-Sep-17 05:31N 47°38' W 002°46'0 0.0
2017-Sep-17 05:00N 47°38' W 002°46'0 0.0
2017-Sep-17 04:31N 47°38' W 002°46'0 0.0
2017-Sep-17 04:01N 47°38' W 002°46'0 0.0
2017-Sep-17 03:30N 47°38' W 002°46'0 0.0
2017-Sep-17 03:00N 47°38' W 002°46'0 0.0
2017-Sep-17 02:30N 47°38' W 002°46'0 0.0
2017-Sep-17 02:01N 47°38' W 002°46'0 0.0
2017-Sep-17 01:31N 47°38' W 002°46'0 0.0
2017-Sep-17 01:00N 47°38' W 002°46'0 0.0
2017-Sep-17 00:31N 47°38' W 002°46'0 0.0
2017-Sep-17 00:00N 47°38' W 002°46'0 0.0
2017-Sep-16 23:31N 47°38' W 002°46'0 0.0
2017-Sep-16 23:01N 47°38' W 002°46'0 0.0
2017-Sep-16 22:30N 47°38' W 002°46'0 0.0
2017-Sep-16 22:00N 47°38' W 002°46'0 0.0
2017-Sep-16 21:30N 47°38' W 002°46'0 0.0
2017-Sep-16 21:00N 47°38' W 002°46'0 0.0
2017-Sep-16 20:30N 47°38' W 002°46'0 0.0
2017-Sep-16 20:00N 47°38' W 002°46'0 0.0
2017-Sep-16 19:30N 47°38' W 002°46'0 0.0
2017-Sep-16 19:00N 47°38' W 002°46'0 0.0
2017-Sep-16 18:30N 47°38' W 002°46'0 0.0
2017-Sep-16 18:01N 47°38' W 002°46'0 0.0
2017-Sep-16 17:31N 47°38' W 002°46'0 0.0
2017-Sep-16 17:00N 47°38' W 002°46'0 0.0
2017-Sep-16 16:30N 47°38' W 002°46'0 0.0
2017-Sep-16 16:01N 47°38' W 002°46'0 0.0
2017-Sep-16 15:31N 47°38' W 002°46'0 0.0
2017-Sep-16 15:01N 47°38' W 002°46'0 0.0
2017-Sep-16 14:30N 47°38' W 002°46'0 0.0
2017-Sep-16 14:01N 47°38' W 002°46'0 0.0
2017-Sep-16 13:30N 47°38' W 002°46'0 0.0
2017-Sep-16 13:00N 47°38' W 002°46'0 0.0
2017-Sep-16 12:30N 47°38' W 002°46'0 0.0
2017-Sep-16 12:00N 47°38' W 002°46'0 0.0
2017-Sep-16 11:30N 47°38' W 002°46'0 0.0
2017-Sep-16 11:00N 47°38' W 002°46'0 0.0
2017-Sep-16 10:31N 47°38' W 002°46'0 0.0
2017-Sep-16 10:00N 47°38' W 002°46'0 0.0
2017-Sep-16 09:30N 47°38' W 002°46'0 0.0
2017-Sep-16 09:00N 47°38' W 002°46'0 0.0
2017-Sep-16 08:30N 47°38' W 002°46'0 0.0
2017-Sep-16 08:00N 47°38' W 002°46'0 0.0
2017-Sep-16 07:30N 47°38' W 002°46'0 0.0
2017-Sep-16 07:00N 47°38' W 002°46'0 0.0
2017-Sep-16 06:31N 47°38' W 002°46'0 0.0
2017-Sep-16 06:00N 47°38' W 002°46'0 0.0
2017-Sep-16 05:31N 47°38' W 002°46'0 0.0
2017-Sep-16 05:00N 47°38' W 002°46'0 0.0
2017-Sep-16 04:30N 47°38' W 002°46'0 0.0
2017-Sep-16 04:00N 47°38' W 002°46'0 0.0
2017-Sep-16 03:30N 47°38' W 002°46'0 0.0
2017-Sep-16 03:01N 47°38' W 002°46'0 0.0
2017-Sep-16 02:31N 47°38' W 002°46'0 0.0
2017-Sep-16 02:00N 47°38' W 002°46'0 0.0
2017-Sep-16 01:31N 47°38' W 002°46'0 0.0
2017-Sep-16 01:00N 47°38' W 002°46'0 0.0
2017-Sep-16 00:30N 47°38' W 002°46'0 0.0
2017-Sep-16 00:01N 47°38' W 002°46'0 0.0
2017-Sep-15 23:30N 47°38' W 002°46'0 0.0
2017-Sep-15 23:01N 47°38' W 002°46'0 0.0
2017-Sep-15 22:30N 47°38' W 002°46'0 0.0
2017-Sep-15 22:01N 47°38' W 002°46'0 0.0
2017-Sep-15 21:30N 47°38' W 002°46'0 0.0
2017-Sep-15 21:01N 47°38' W 002°46'0 0.0
2017-Sep-15 20:30N 47°38' W 002°46'0 0.0
2017-Sep-15 20:00N 47°38' W 002°46'0 0.0
2017-Sep-15 19:30N 47°38' W 002°46'0 0.0
2017-Sep-15 19:00N 47°38' W 002°46'0 0.0
2017-Sep-15 18:30N 47°38' W 002°46'0 0.0
2017-Sep-15 18:00N 47°38' W 002°46'0 0.0
2017-Sep-15 17:30N 47°38' W 002°46'0 0.0
2017-Sep-15 17:00N 47°38' W 002°46'0 0.0
2017-Sep-15 16:30N 47°38' W 002°46'1 1.4
2017-Sep-15 16:00N 47°38' W 002°46'4 7.6
2017-Sep-15 15:30N 47°36' W 002°51'4 7.4
2017-Sep-15 15:01N 47°34' W 002°55'4 8.6
2017-Sep-15 14:31N 47°30' W 002°58'510.1
2017-Sep-15 14:00N 47°27' W 003°04'3 6.0
2017-Sep-15 13:31N 47°29' W 003°07'4 8.2
2017-Sep-15 13:01N 47°24' W 003°08'4 7.6
2017-Sep-15 12:30N 47°21' W 003°09'0 0.3
2017-Sep-15 11:40N 47°21' W 003°09'0 1.2
2017-Sep-15 11:30N 47°21' W 003°09'0 0.1
2017-Sep-15 11:01N 47°21' W 003°09'0 0.0
2017-Sep-15 10:30N 47°21' W 003°09'2 4.2
2017-Sep-15 10:00N 47°23' W 003°09'510.4
2017-Sep-15 09:30N 47°28' W 003°07'1 1.4
2017-Sep-15 09:00N 47°29' W 003°07'0 0.0
2017-Sep-15 08:30N 47°29' W 003°07'0 0.0
2017-Sep-15 08:00N 47°29' W 003°07'0 0.0
2017-Sep-15 07:31N 47°29' W 003°07'0 0.0
2017-Sep-15 07:00N 47°29' W 003°07'2 4.0
2017-Sep-15 06:31N 47°27' W 003°07'5 9.9
2017-Sep-15 06:00N 47°22' W 003°08'1 2.0
2017-Sep-15 05:30N 47°21' W 003°09'1 1.6
2017-Sep-15 05:01N 47°22' W 003°09'510.3
2017-Sep-15 04:30N 47°27' W 003°08'2 3.8
2017-Sep-15 04:00N 47°29' W 003°07'0 0.0
2017-Sep-15 03:30N 47°29' W 003°07'0 0.0
2017-Sep-15 03:00N 47°29' W 003°07'0 0.0
2017-Sep-15 02:30N 47°29' W 003°07'0 0.0
2017-Sep-15 02:00N 47°29' W 003°07'0 0.0
2017-Sep-15 01:30N 47°29' W 003°07'0 0.0
2017-Sep-15 01:00N 47°29' W 003°07'0 0.0
2017-Sep-15 00:30N 47°29' W 003°07'0 0.0
2017-Sep-15 00:00N 47°29' W 003°07'0 0.0
2017-Sep-14 23:30N 47°29' W 003°07'0 0.0
2017-Sep-14 23:00N 47°29' W 003°07'0 0.0
2017-Sep-14 22:30N 47°29' W 003°07'0 0.0
2017-Sep-14 22:00N 47°29' W 003°07'0 0.0
2017-Sep-14 21:30N 47°29' W 003°07'0 0.0
2017-Sep-14 21:00N 47°29' W 003°07'0 0.0
2017-Sep-14 20:30N 47°29' W 003°07'0 0.0
2017-Sep-14 20:00N 47°29' W 003°07'0 0.0
2017-Sep-14 19:30N 47°29' W 003°07'0 0.0
2017-Sep-14 19:00N 47°29' W 003°07'0 0.0
2017-Sep-14 18:30N 47°29' W 003°07'3 5.4
2017-Sep-14 18:00N 47°27' W 003°05'4 8.5
2017-Sep-14 17:30N 47°28' W 002°59'5 9.4
2017-Sep-14 17:00N 47°32' W 002°55'510.9
2017-Sep-14 16:30N 47°36' W 002°51'3 6.9
2017-Sep-14 16:00N 47°38' W 002°46'1 1.3
2017-Sep-14 15:30N 47°38' W 002°46'0 0.0
2017-Sep-14 15:00N 47°38' W 002°46'0 0.0
2017-Sep-14 14:30N 47°38' W 002°46'0 0.0
2017-Sep-14 14:00N 47°38' W 002°46'0 0.0
2017-Sep-14 13:31N 47°38' W 002°46'0 0.0
2017-Sep-14 13:01N 47°38' W 002°46'0 0.0
2017-Sep-14 12:30N 47°38' W 002°46'0 0.0
2017-Sep-14 12:01N 47°38' W 002°46'0 0.0
2017-Sep-14 11:31N 47°38' W 002°46'0 0.0
2017-Sep-14 11:01N 47°38' W 002°46'0 0.0
2017-Sep-14 10:30N 47°38' W 002°46'0 0.0
2017-Sep-14 10:00N 47°38' W 002°46'0 0.0
2017-Sep-14 09:30N 47°38' W 002°46'0 0.0
2017-Sep-14 09:00N 47°38' W 002°46'0 0.0
2017-Sep-14 08:30N 47°38' W 002°46'0 0.0
2017-Sep-14 08:01N 47°38' W 002°46'0 0.0
2017-Sep-14 07:30N 47°38' W 002°46'0 0.0
2017-Sep-14 07:00N 47°38' W 002°46'0 0.0
2017-Sep-14 06:30N 47°38' W 002°46'0 0.0
2017-Sep-14 06:00N 47°38' W 002°46'0 0.0
2017-Sep-14 05:31N 47°38' W 002°46'0 0.0
2017-Sep-14 05:00N 47°38' W 002°46'0 0.0
2017-Sep-14 04:30N 47°38' W 002°46'0 0.0
2017-Sep-14 04:00N 47°38' W 002°46'0 0.0
2017-Sep-14 03:30N 47°38' W 002°46'0 0.0
2017-Sep-14 03:00N 47°38' W 002°46'0 0.0
2017-Sep-14 02:31N 47°38' W 002°46'0 0.0
2017-Sep-14 02:00N 47°38' W 002°46'0 0.0
2017-Sep-14 01:30N 47°38' W 002°46'0 0.0
2017-Sep-14 01:00N 47°38' W 002°46'0 0.0
2017-Sep-14 00:31N 47°38' W 002°46'0 0.0
2017-Sep-14 00:00N 47°38' W 002°46'0 0.0
2017-Sep-13 23:31N 47°38' W 002°46'0 0.0
2017-Sep-13 23:01N 47°38' W 002°46'0 0.0
2017-Sep-13 22:30N 47°38' W 002°46'0 0.0
2017-Sep-13 22:00N 47°38' W 002°46'0 0.0
2017-Sep-13 21:31N 47°38' W 002°46'0 0.0
2017-Sep-13 21:00N 47°38' W 002°46'0 0.0
2017-Sep-13 20:30N 47°38' W 002°46'0 0.0
2017-Sep-13 20:00N 47°38' W 002°46'0 0.0
2017-Sep-13 19:30N 47°38' W 002°46'0 0.0
2017-Sep-13 19:00N 47°38' W 002°46'0 0.0
2017-Sep-13 18:30N 47°38' W 002°46'0 0.0
2017-Sep-13 18:00N 47°38' W 002°46'0 0.0
2017-Sep-13 17:30N 47°38' W 002°46'0 0.0
2017-Sep-13 17:01N 47°38' W 002°46'0 0.0
2017-Sep-13 16:30N 47°38' W 002°46'0 0.0
2017-Sep-13 16:01N 47°38' W 002°46'0 0.0
2017-Sep-13 15:30N 47°38' W 002°46'0 0.0
2017-Sep-13 15:01N 47°38' W 002°46'0 0.0
2017-Sep-13 14:31N 47°38' W 002°46'0 0.0
2017-Sep-13 14:00N 47°38' W 002°46'0 0.0
2017-Sep-13 13:30N 47°38' W 002°46'0 0.0
2017-Sep-13 13:01N 47°38' W 002°46'0 0.0
2017-Sep-13 12:30N 47°38' W 002°46'0 0.0
2017-Sep-13 12:00N 47°38' W 002°46'0 0.0
2017-Sep-13 11:30N 47°38' W 002°46'0 0.0
2017-Sep-13 11:01N 47°38' W 002°46'0 0.0
2017-Sep-13 10:30N 47°38' W 002°46'0 0.0
2017-Sep-13 10:00N 47°38' W 002°46'0 0.0
2017-Sep-13 09:31N 47°38' W 002°46'0 0.0
2017-Sep-13 09:00N 47°38' W 002°46'0 0.0
2017-Sep-13 08:31N 47°38' W 002°46'0 0.0
2017-Sep-13 08:00N 47°38' W 002°46'0 0.0
2017-Sep-13 07:30N 47°38' W 002°46'0 0.0
2017-Sep-13 07:00N 47°38' W 002°46'0 0.0
2017-Sep-13 06:30N 47°38' W 002°46'0 0.0
2017-Sep-13 06:00N 47°38' W 002°46'0 0.0
2017-Sep-13 05:30N 47°38' W 002°46'0 0.0
2017-Sep-13 05:00N 47°38' W 002°46'0 0.0
2017-Sep-13 04:30N 47°38' W 002°46'0 0.0
2017-Sep-13 04:01N 47°38' W 002°46'0 0.0
2017-Sep-13 03:30N 47°38' W 002°46'0 0.0
2017-Sep-13 03:00N 47°38' W 002°46'0 0.0
2017-Sep-13 02:30N 47°38' W 002°46'0 0.0
2017-Sep-13 02:00N 47°38' W 002°46'0 0.0
2017-Sep-13 01:31N 47°38' W 002°46'0 0.0
2017-Sep-13 01:01N 47°38' W 002°46'0 0.0
2017-Sep-13 00:30N 47°38' W 002°46'0 0.0
2017-Sep-13 00:00N 47°38' W 002°46'0 0.0
2017-Sep-12 23:30N 47°38' W 002°46'0 0.0
2017-Sep-12 23:01N 47°38' W 002°46'0 0.0
2017-Sep-12 22:30N 47°38' W 002°46'0 0.0
2017-Sep-12 22:00N 47°38' W 002°46'0 0.0
2017-Sep-12 21:30N 47°38' W 002°46'0 0.0
2017-Sep-12 21:00N 47°38' W 002°46'0 0.0
2017-Sep-12 20:30N 47°38' W 002°46'0 0.0
2017-Sep-12 20:01N 47°38' W 002°46'0 0.0
2017-Sep-12 19:31N 47°38' W 002°46'0 0.0
2017-Sep-12 19:00N 47°38' W 002°46'0 0.0
2017-Sep-12 18:30N 47°38' W 002°46'0 0.0
2017-Sep-12 18:00N 47°38' W 002°46'0 0.0
2017-Sep-12 17:31N 47°38' W 002°46'0 0.4
2017-Sep-12 17:01N 47°38' W 002°46'2 5.0
2017-Sep-12 16:30N 47°37' W 002°49'4 8.4
2017-Sep-12 16:00N 47°34' W 002°54'3 6.8
2017-Sep-12 15:30N 47°31' W 002°56'511.0
2017-Sep-12 15:00N 47°27' W 003°01'4 7.7
2017-Sep-12 14:30N 47°28' W 003°07'1 1.7
2017-Sep-12 14:00N 47°29' W 003°07'0 0.0
2017-Sep-12 13:30N 47°29' W 003°07'0 0.1
2017-Sep-12 13:00N 47°29' W 003°07'5 9.6
2017-Sep-12 12:30N 47°24' W 003°08'3 6.1
2017-Sep-12 12:00N 47°21' W 003°09'1 1.7
2017-Sep-12 11:30N 47°22' W 003°09'510.3
2017-Sep-12 11:00N 47°27' W 003°08'2 3.7
2017-Sep-12 10:31N 47°29' W 003°07'5 9.6
2017-Sep-12 10:00N 47°24' W 003°08'3 6.1
2017-Sep-12 09:30N 47°21' W 003°09'4 7.4
2017-Sep-12 09:00N 47°24' W 003°09'4 8.6
2017-Sep-12 08:31N 47°29' W 003°07'0 0.1
2017-Sep-12 08:00N 47°29' W 003°07'0 0.0
2017-Sep-12 07:30N 47°29' W 003°07'4 7.0
2017-Sep-12 07:00N 47°25' W 003°07'4 9.0
2017-Sep-12 06:30N 47°21' W 003°09'0 0.2
2017-Sep-12 05:14N 47°21' W 003°09'0 0.0
2017-Sep-12 04:45N 47°21' W 003°09'0 0.0
2017-Sep-12 04:30N 47°21' W 003°09'0 0.0
2017-Sep-12 04:00N 47°21' W 003°09'0 0.0
2017-Sep-12 03:29N 47°21' W 003°09'0 0.0
2017-Sep-12 03:00N 47°21' W 003°09'  
Track history (hours):
 
Tides and Currents Weather Stations Pressure Air Temp Water Temp Dewpoint Dewpoint Depression Visibility Wind Speed Wind Dir Waves Ship Positions

Goulphar

Last reported at 2017-Sep-22 02:00 UTC. Time now 2017-Sep-22 22:24 UTC.
Position N 47°29' W 003°07'.

Length 36 m; draft 1.8 m.

Type: Cargo ship. MMSI: 228082800.

Date/timePositionNaut miles runAvg speedWind from/ knotsBaromVisibWave heightAir tempDewpointWater temp
2017-Sep-22 02:00N 47°29' W 003°07'0 0.0
2017-Sep-22 01:30N 47°29' W 003°07'0 0.0
2017-Sep-22 01:00N 47°29' W 003°07'0 0.0
2017-Sep-22 00:30N 47°29' W 003°07'0 0.0
2017-Sep-22 00:00N 47°29' W 003°07'0 0.0
2017-Sep-21 23:30N 47°29' W 003°07'0 0.0
2017-Sep-21 23:00N 47°29' W 003°07'0 0.0
2017-Sep-21 22:30N 47°29' W 003°07'0 0.0
2017-Sep-21 22:00N 47°29' W 003°07'0 0.0
2017-Sep-21 21:30N 47°29' W 003°07'0 0.0
2017-Sep-21 21:00N 47°29' W 003°07'0 0.0
2017-Sep-21 20:30N 47°29' W 003°07'0 0.0
2017-Sep-21 20:00N 47°29' W 003°07'0 0.0
2017-Sep-21 19:30N 47°29' W 003°07'0 0.0
2017-Sep-21 19:00N 47°29' W 003°07'0 0.0
2017-Sep-21 18:30N 47°29' W 003°07'0 0.0
2017-Sep-21 18:00N 47°29' W 003°07'0 0.0
2017-Sep-21 17:30N 47°29' W 003°07'0 0.0
2017-Sep-21 17:00N 47°29' W 003°07'0 0.0
2017-Sep-21 16:30N 47°29' W 003°07'0 0.0
2017-Sep-21 16:00N 47°29' W 003°07'0 0.0
2017-Sep-21 15:30N 47°29' W 003°07'0 0.0
2017-Sep-21 15:00N 47°29' W 003°07'4 8.0
2017-Sep-21 14:30N 47°25' W 003°08'3 6.8
2017-Sep-21 14:00N 47°21' W 003°09'0 0.0
2017-Sep-21 13:29N 47°21' W 003°09'0 0.0
2017-Sep-21 12:59N 47°21' W 003°09'0 0.0
2017-Sep-21 12:26N 47°21' W 003°09'0 0.0
2017-Sep-21 11:59N 47°21' W 003°09'0 0.0
2017-Sep-21 11:29N 47°21' W 003°09'0 0.0
2017-Sep-21 10:59N 47°21' W 003°09'0 0.0
2017-Sep-21 10:29N 47°21' W 003°09'0 0.0
2017-Sep-21 09:59N 47°21' W 003°09'0 0.0
2017-Sep-21 09:29N 47°21' W 003°09'0 0.0
2017-Sep-21 08:59N 47°21' W 003°09'0 0.0
2017-Sep-21 08:26N 47°21' W 003°09'0 0.0
2017-Sep-21 07:56N 47°21' W 003°09'0 0.0
2017-Sep-21 07:29N 47°21' W 003°09'0 0.1
2017-Sep-21 07:01N 47°21' W 003°09'1 1.1
2017-Sep-21 06:30N 47°21' W 003°09'4 8.6
2017-Sep-21 06:01N 47°25' W 003°09'4 7.4
2017-Sep-21 05:30N 47°29' W 003°07'0 0.1
2017-Sep-21 05:01N 47°29' W 003°07'4 8.8
2017-Sep-21 04:30N 47°24' W 003°08'3 7.0
2017-Sep-21 04:00N 47°21' W 003°09'0 0.0
2017-Sep-21 03:30N 47°21' W 003°09'0 0.0
2017-Sep-20 17:54N 47°21' W 003°09'0 0.0
2017-Sep-20 17:30N 47°21' W 003°09'0 0.0
2017-Sep-20 17:00N 47°21' W 003°09'0 0.0
2017-Sep-20 16:26N 47°21' W 003°09'0 0.0
2017-Sep-20 13:49N 47°21' W 003°09'0 1.4
2017-Sep-20 13:30N 47°21' W 003°09'1 2.7
2017-Sep-20 13:00N 47°22' W 003°08'4 8.0
2017-Sep-20 12:31N 47°25' W 003°05'3 6.6
2017-Sep-20 12:00N 47°27' W 003°01'4 8.9
2017-Sep-20 11:30N 47°30' W 002°56'510.7
2017-Sep-20 11:00N 47°35' W 002°52'4 8.4
2017-Sep-20 10:30N 47°37' W 002°47'1 2.6
2017-Sep-20 10:00N 47°38' W 002°46'0 0.0
2017-Sep-20 09:30N 47°38' W 002°46'0 0.0
2017-Sep-20 09:00N 47°38' W 002°46'0 0.0
2017-Sep-20 08:30N 47°38' W 002°46'0 0.0
2017-Sep-20 08:00N 47°38' W 002°46'0 0.0
2017-Sep-20 07:30N 47°38' W 002°46'0 0.0
2017-Sep-20 07:00N 47°38' W 002°46'0 0.0
2017-Sep-20 06:30N 47°38' W 002°46'0 0.0
2017-Sep-20 06:00N 47°38' W 002°46'0 0.0
2017-Sep-20 05:30N 47°38' W 002°46'0 0.0
2017-Sep-20 05:00N 47°38' W 002°46'0 0.0
2017-Sep-20 04:30N 47°38' W 002°46'0 0.0
2017-Sep-20 04:00N 47°38' W 002°46'0 0.0
2017-Sep-20 03:30N 47°38' W 002°46'0 0.0
2017-Sep-20 03:00N 47°38' W 002°46'0 0.0
2017-Sep-20 02:30N 47°38' W 002°46'0 0.0
2017-Sep-20 02:00N 47°38' W 002°46'0 0.0
2017-Sep-20 01:30N 47°38' W 002°46'0 0.0
2017-Sep-20 01:00N 47°38' W 002°46'0 0.0
2017-Sep-20 00:30N 47°38' W 002°46'0 0.0
2017-Sep-20 00:00N 47°38' W 002°46'0 0.0
2017-Sep-19 23:30N 47°38' W 002°46'0 0.0
2017-Sep-19 23:00N 47°38' W 002°46'0 0.0
2017-Sep-19 22:30N 47°38' W 002°46'0 0.0
2017-Sep-19 22:00N 47°38' W 002°46'0 0.0
2017-Sep-19 21:30N 47°38' W 002°46'0 0.0
2017-Sep-19 21:00N 47°38' W 002°46'0 0.0
2017-Sep-19 20:30N 47°38' W 002°46'0 0.0
2017-Sep-19 20:00N 47°38' W 002°46'0 0.0
2017-Sep-19 19:30N 47°38' W 002°46'0 0.0
2017-Sep-19 19:00N 47°38' W 002°46'0 0.0
2017-Sep-19 18:30N 47°38' W 002°46'0 0.0
2017-Sep-19 18:00N 47°38' W 002°46'0 0.0
2017-Sep-19 17:30N 47°38' W 002°46'0 0.0
2017-Sep-19 17:00N 47°38' W 002°46'0 0.0
2017-Sep-19 16:30N 47°38' W 002°46'0 0.0
2017-Sep-19 16:00N 47°38' W 002°46'0 0.0
2017-Sep-19 15:30N 47°38' W 002°46'0 0.0
2017-Sep-19 15:00N 47°38' W 002°46'0 0.0
2017-Sep-19 14:30N 47°38' W 002°46'0 0.0
2017-Sep-19 14:00N 47°38' W 002°46'0 0.0
2017-Sep-19 13:30N 47°38' W 002°46'0 0.0
2017-Sep-19 13:00N 47°38' W 002°46'0 0.0
2017-Sep-19 12:30N 47°38' W 002°46'0 0.0
2017-Sep-19 12:00N 47°38' W 002°46'0 0.0
2017-Sep-19 11:30N 47°38' W 002°46'0 0.0
2017-Sep-19 11:00N 47°38' W 002°46'0 0.0
2017-Sep-19 10:31N 47°38' W 002°46'0 0.0
2017-Sep-19 10:00N 47°38' W 002°46'0 0.0
2017-Sep-19 09:30N 47°38' W 002°46'0 0.0
2017-Sep-19 09:00N 47°38' W 002°46'0 0.0
2017-Sep-19 08:30N 47°38' W 002°46'0 0.0
2017-Sep-19 08:00N 47°38' W 002°46'0 0.0
2017-Sep-19 07:30N 47°38' W 002°46'0 0.0
2017-Sep-19 07:00N 47°38' W 002°46'0 0.0
2017-Sep-19 06:30N 47°38' W 002°46'0 0.0
2017-Sep-19 06:00N 47°38' W 002°46'2 3.9
2017-Sep-19 05:31N 47°37' W 002°48'5 9.1
2017-Sep-19 05:00N 47°34' W 002°53'5 9.8
2017-Sep-19 04:30N 47°30' W 002°57'510.6
2017-Sep-19 04:00N 47°27' W 003°03'510.3
2017-Sep-19 03:30N 47°22' W 003°07'2 4.4
2017-Sep-19 03:00N 47°21' W 003°09'0 0.0
2017-Sep-19 02:29N 47°21' W 003°09'0 0.0
2017-Sep-19 01:58N 47°21' W 003°09'0 0.0
2017-Sep-19 01:29N 47°21' W 003°09'0 0.0
2017-Sep-19 00:59N 47°21' W 003°09'0 0.0
2017-Sep-19 00:30N 47°21' W 003°09'0 0.0
2017-Sep-19 00:00N 47°21' W 003°09'0 0.0
2017-Sep-18 23:30N 47°21' W 003°09'0 0.0
2017-Sep-18 23:00N 47°21' W 003°09'0 0.0
2017-Sep-18 22:29N 47°21' W 003°09'0 0.0
2017-Sep-18 21:59N 47°21' W 003°09'0 0.0
2017-Sep-18 21:30N 47°21' W 003°09'0 0.0
2017-Sep-18 21:00N 47°21' W 003°09'0 0.0
2017-Sep-18 20:30N 47°21' W 003°09'0 0.0
2017-Sep-18 20:00N 47°21' W 003°09'0 0.0
2017-Sep-18 19:30N 47°21' W 003°09'0 0.0
2017-Sep-18 18:59N 47°21' W 003°09'0 0.0
2017-Sep-18 18:30N 47°21' W 003°09'0 0.0
2017-Sep-18 17:58N 47°21' W 003°09'0 0.0
2017-Sep-18 17:30N 47°21' W 003°09'0 0.0
2017-Sep-18 17:00N 47°21' W 003°09'0 0.0
2017-Sep-18 16:30N 47°21' W 003°09'0 0.3
2017-Sep-18 16:00N 47°21' W 003°09'4 8.9
2017-Sep-18 15:30N 47°24' W 003°05'510.4
2017-Sep-18 15:00N 47°28' W 003°00'5 9.6
2017-Sep-18 14:30N 47°32' W 002°56'3 6.9
2017-Sep-18 14:00N 47°35' W 002°53'4 7.6
2017-Sep-18 13:31N 47°37' W 002°48'2 4.2
2017-Sep-18 13:00N 47°38' W 002°46'0 0.0
2017-Sep-18 12:30N 47°38' W 002°46'0 0.0
2017-Sep-18 12:00N 47°38' W 002°46'0 0.0
2017-Sep-18 11:30N 47°38' W 002°46'0 0.0
2017-Sep-18 11:00N 47°38' W 002°46'0 0.0
2017-Sep-18 10:30N 47°38' W 002°46'0 0.0
2017-Sep-18 10:00N 47°38' W 002°46'0 0.0
2017-Sep-18 09:30N 47°38' W 002°46'0 0.0
2017-Sep-18 09:00N 47°38' W 002°46'0 0.0
2017-Sep-18 08:30N 47°38' W 002°46'0 0.0
2017-Sep-18 08:00N 47°38' W 002°46'0 0.0
2017-Sep-18 07:30N 47°38' W 002°46'0 0.0
2017-Sep-18 07:00N 47°38' W 002°46'0 0.0
2017-Sep-18 06:30N 47°38' W 002°46'0 0.0
2017-Sep-18 06:00N 47°38' W 002°46'0 0.0
2017-Sep-18 05:30N 47°38' W 002°46'0 0.0
2017-Sep-18 05:00N 47°38' W 002°46'0 0.0
2017-Sep-18 04:30N 47°38' W 002°46'0 0.0
2017-Sep-18 04:00N 47°38' W 002°46'0 0.0
2017-Sep-18 03:30N 47°38' W 002°46'0 0.0
2017-Sep-18 03:00N 47°38' W 002°46'0 0.0
2017-Sep-18 02:30N 47°38' W 002°46'0 0.0
2017-Sep-18 02:00N 47°38' W 002°46'0 0.0
2017-Sep-18 01:30N 47°38' W 002°46'0 0.0
2017-Sep-18 01:00N 47°38' W 002°46'0 0.0
2017-Sep-18 00:30N 47°38' W 002°46'0 0.0
2017-Sep-18 00:00N 47°38' W 002°46'0 0.0
2017-Sep-17 23:30N 47°38' W 002°46'0 0.0
2017-Sep-17 23:00N 47°38' W 002°46'0 0.0
2017-Sep-17 22:30N 47°38' W 002°46'0 0.0
2017-Sep-17 22:00N 47°38' W 002°46'0 0.0
2017-Sep-17 21:30N 47°38' W 002°46'0 0.0
2017-Sep-17 21:00N 47°38' W 002°46'0 0.0
2017-Sep-17 20:30N 47°38' W 002°46'0 0.0
2017-Sep-17 20:00N 47°38' W 002°46'0 0.0
2017-Sep-17 19:30N 47°38' W 002°46'0 0.0
2017-Sep-17 19:01N 47°38' W 002°46'0 0.0
2017-Sep-17 18:31N 47°38' W 002°46'0 0.0
2017-Sep-17 18:01N 47°38' W 002°46'0 0.0
2017-Sep-17 17:31N 47°38' W 002°46'0 0.0
2017-Sep-17 17:00N 47°38' W 002°46'0 0.0
2017-Sep-17 16:30N 47°38' W 002°46'0 0.0
2017-Sep-17 16:00N 47°38' W 002°46'0 0.0
2017-Sep-17 15:30N 47°38' W 002°46'0 0.0
2017-Sep-17 15:00N 47°38' W 002°46'0 0.0
2017-Sep-17 14:30N 47°38' W 002°46'0 0.0
2017-Sep-17 14:00N 47°38' W 002°46'0 0.0
2017-Sep-17 13:30N 47°38' W 002°46'0 0.0
2017-Sep-17 13:00N 47°38' W 002°46'0 0.0
2017-Sep-17 12:30N 47°38' W 002°46'0 0.0
2017-Sep-17 12:00N 47°38' W 002°46'0 0.0
2017-Sep-17 11:30N 47°38' W 002°46'0 0.0
2017-Sep-17 11:00N 47°38' W 002°46'0 0.0
2017-Sep-17 10:31N 47°38' W 002°46'0 0.0
2017-Sep-17 10:00N 47°38' W 002°46'0 0.0
2017-Sep-17 09:30N 47°38' W 002°46'0 0.0
2017-Sep-17 09:01N 47°38' W 002°46'0 0.0
2017-Sep-17 08:30N 47°38' W 002°46'0 0.0
2017-Sep-17 08:01N 47°38' W 002°46'0 0.0
2017-Sep-17 07:31N 47°38' W 002°46'0 0.0
2017-Sep-17 07:01N 47°38' W 002°46'0 0.0
2017-Sep-17 06:31N 47°38' W 002°46'0 0.0
2017-Sep-17 06:01N 47°38' W 002°46'0 0.0
2017-Sep-17 05:31N 47°38' W 002°46'0 0.0
2017-Sep-17 05:00N 47°38' W 002°46'0 0.0
2017-Sep-17 04:31N 47°38' W 002°46'0 0.0
2017-Sep-17 04:01N 47°38' W 002°46'0 0.0
2017-Sep-17 03:30N 47°38' W 002°46'0 0.0
2017-Sep-17 03:00N 47°38' W 002°46'0 0.0
2017-Sep-17 02:30N 47°38' W 002°46'0 0.0
2017-Sep-17 02:01N 47°38' W 002°46'0 0.0
2017-Sep-17 01:31N 47°38' W 002°46'0 0.0
2017-Sep-17 01:00N 47°38' W 002°46'0 0.0
2017-Sep-17 00:31N 47°38' W 002°46'0 0.0
2017-Sep-17 00:00N 47°38' W 002°46'0 0.0
2017-Sep-16 23:31N 47°38' W 002°46'0 0.0
2017-Sep-16 23:01N 47°38' W 002°46'0 0.0
2017-Sep-16 22:30N 47°38' W 002°46'0 0.0
2017-Sep-16 22:00N 47°38' W 002°46'0 0.0
2017-Sep-16 21:30N 47°38' W 002°46'0 0.0
2017-Sep-16 21:00N 47°38' W 002°46'0 0.0
2017-Sep-16 20:30N 47°38' W 002°46'0 0.0
2017-Sep-16 20:00N 47°38' W 002°46'0 0.0
2017-Sep-16 19:30N 47°38' W 002°46'0 0.0
2017-Sep-16 19:00N 47°38' W 002°46'0 0.0
2017-Sep-16 18:30N 47°38' W 002°46'0 0.0
2017-Sep-16 18:01N 47°38' W 002°46'0 0.0
2017-Sep-16 17:31N 47°38' W 002°46'0 0.0
2017-Sep-16 17:00N 47°38' W 002°46'0 0.0
2017-Sep-16 16:30N 47°38' W 002°46'0 0.0
2017-Sep-16 16:01N 47°38' W 002°46'0 0.0
2017-Sep-16 15:31N 47°38' W 002°46'0 0.0
2017-Sep-16 15:01N 47°38' W 002°46'0 0.0
2017-Sep-16 14:30N 47°38' W 002°46'0 0.0
2017-Sep-16 14:01N 47°38' W 002°46'0 0.0
2017-Sep-16 13:30N 47°38' W 002°46'0 0.0
2017-Sep-16 13:00N 47°38' W 002°46'0 0.0
2017-Sep-16 12:30N 47°38' W 002°46'0 0.0
2017-Sep-16 12:00N 47°38' W 002°46'0 0.0
2017-Sep-16 11:30N 47°38' W 002°46'0 0.0
2017-Sep-16 11:00N 47°38' W 002°46'0 0.0
2017-Sep-16 10:31N 47°38' W 002°46'0 0.0
2017-Sep-16 10:00N 47°38' W 002°46'0 0.0
2017-Sep-16 09:30N 47°38' W 002°46'0 0.0
2017-Sep-16 09:00N 47°38' W 002°46'0 0.0
2017-Sep-16 08:30N 47°38' W 002°46'0 0.0
2017-Sep-16 08:00N 47°38' W 002°46'0 0.0
2017-Sep-16 07:30N 47°38' W 002°46'0 0.0
2017-Sep-16 07:00N 47°38' W 002°46'0 0.0
2017-Sep-16 06:31N 47°38' W 002°46'0 0.0
2017-Sep-16 06:00N 47°38' W 002°46'0 0.0
2017-Sep-16 05:31N 47°38' W 002°46'0 0.0
2017-Sep-16 05:00N 47°38' W 002°46'0 0.0
2017-Sep-16 04:30N 47°38' W 002°46'0 0.0
2017-Sep-16 04:00N 47°38' W 002°46'0 0.0
2017-Sep-16 03:30N 47°38' W 002°46'0 0.0
2017-Sep-16 03:01N 47°38' W 002°46'0 0.0
2017-Sep-16 02:31N 47°38' W 002°46'0 0.0
2017-Sep-16 02:00N 47°38' W 002°46'0 0.0
2017-Sep-16 01:31N 47°38' W 002°46'0 0.0
2017-Sep-16 01:00N 47°38' W 002°46'0 0.0
2017-Sep-16 00:30N 47°38' W 002°46'0 0.0
2017-Sep-16 00:01N 47°38' W 002°46'0 0.0
2017-Sep-15 23:30N 47°38' W 002°46'0 0.0
2017-Sep-15 23:01N 47°38' W 002°46'0 0.0
2017-Sep-15 22:30N 47°38' W 002°46'0 0.0
2017-Sep-15 22:01N 47°38' W 002°46'0 0.0
2017-Sep-15 21:30N 47°38' W 002°46'0 0.0
2017-Sep-15 21:01N 47°38' W 002°46'0 0.0
2017-Sep-15 20:30N 47°38' W 002°46'0 0.0
2017-Sep-15 20:00N 47°38' W 002°46'0 0.0
2017-Sep-15 19:30N 47°38' W 002°46'0 0.0
2017-Sep-15 19:00N 47°38' W 002°46'0 0.0
2017-Sep-15 18:30N 47°38' W 002°46'0 0.0
2017-Sep-15 18:00N 47°38' W 002°46'0 0.0
2017-Sep-15 17:30N 47°38' W 002°46'0 0.0
2017-Sep-15 17:00N 47°38' W 002°46'0 0.0
2017-Sep-15 16:30N 47°38' W 002°46'1 1.4
2017-Sep-15 16:00N 47°38' W 002°46'4 7.6
2017-Sep-15 15:30N 47°36' W 002°51'4 7.4
2017-Sep-15 15:01N 47°34' W 002°55'4 8.6
2017-Sep-15 14:31N 47°30' W 002°58'510.1
2017-Sep-15 14:00N 47°27' W 003°04'3 6.0
2017-Sep-15 13:31N 47°29' W 003°07'4 8.2
2017-Sep-15 13:01N 47°24' W 003°08'4 7.6
2017-Sep-15 12:30N 47°21' W 003°09'0 0.3
2017-Sep-15 11:40N 47°21' W 003°09'0 1.2
2017-Sep-15 11:30N 47°21' W 003°09'0 0.1
2017-Sep-15 11:01N 47°21' W 003°09'0 0.0
2017-Sep-15 10:30N 47°21' W 003°09'2 4.2
2017-Sep-15 10:00N 47°23' W 003°09'510.4
2017-Sep-15 09:30N 47°28' W 003°07'1 1.4
2017-Sep-15 09:00N 47°29' W 003°07'0 0.0
2017-Sep-15 08:30N 47°29' W 003°07'0 0.0
2017-Sep-15 08:00N 47°29' W 003°07'0 0.0
2017-Sep-15 07:31N 47°29' W 003°07'0 0.0
2017-Sep-15 07:00N 47°29' W 003°07'2 4.0
2017-Sep-15 06:31N 47°27' W 003°07'5 9.9
2017-Sep-15 06:00N 47°22' W 003°08'1 2.0
2017-Sep-15 05:30N 47°21' W 003°09'1 1.6
2017-Sep-15 05:01N 47°22' W 003°09'510.3
2017-Sep-15 04:30N 47°27' W 003°08'2 3.8
2017-Sep-15 04:00N 47°29' W 003°07'0 0.0
2017-Sep-15 03:30N 47°29' W 003°07'0 0.0
2017-Sep-15 03:00N 47°29' W 003°07'0 0.0
2017-Sep-15 02:30N 47°29' W 003°07'0 0.0
2017-Sep-15 02:00N 47°29' W 003°07'0 0.0
2017-Sep-15 01:30N 47°29' W 003°07'0 0.0
2017-Sep-15 01:00N 47°29' W 003°07'0 0.0
2017-Sep-15 00:30N 47°29' W 003°07'0 0.0
2017-Sep-15 00:00N 47°29' W 003°07'0 0.0
2017-Sep-14 23:30N 47°29' W 003°07'0 0.0
2017-Sep-14 23:00N 47°29' W 003°07'0 0.0
2017-Sep-14 22:30N 47°29' W 003°07'0 0.0
2017-Sep-14 22:00N 47°29' W 003°07'0 0.0
2017-Sep-14 21:30N 47°29' W 003°07'0 0.0
2017-Sep-14 21:00N 47°29' W 003°07'0 0.0
2017-Sep-14 20:30N 47°29' W 003°07'0 0.0
2017-Sep-14 20:00N 47°29' W 003°07'0 0.0
2017-Sep-14 19:30N 47°29' W 003°07'0 0.0
2017-Sep-14 19:00N 47°29' W 003°07'0 0.0
2017-Sep-14 18:30N 47°29' W 003°07'3 5.4
2017-Sep-14 18:00N 47°27' W 003°05'4 8.5
2017-Sep-14 17:30N 47°28' W 002°59'5 9.4
2017-Sep-14 17:00N 47°32' W 002°55'510.9
2017-Sep-14 16:30N 47°36' W 002°51'3 6.9
2017-Sep-14 16:00N 47°38' W 002°46'1 1.3
2017-Sep-14 15:30N 47°38' W 002°46'0 0.0
2017-Sep-14 15:00N 47°38' W 002°46'0 0.0
2017-Sep-14 14:30N 47°38' W 002°46'0 0.0
2017-Sep-14 14:00N 47°38' W 002°46'0 0.0
2017-Sep-14 13:31N 47°38' W 002°46'0 0.0
2017-Sep-14 13:01N 47°38' W 002°46'0 0.0
2017-Sep-14 12:30N 47°38' W 002°46'0 0.0
2017-Sep-14 12:01N 47°38' W 002°46'0 0.0
2017-Sep-14 11:31N 47°38' W 002°46'0 0.0
2017-Sep-14 11:01N 47°38' W 002°46'0 0.0
2017-Sep-14 10:30N 47°38' W 002°46'0 0.0
2017-Sep-14 10:00N 47°38' W 002°46'0 0.0
2017-Sep-14 09:30N 47°38' W 002°46'0 0.0
2017-Sep-14 09:00N 47°38' W 002°46'0 0.0
2017-Sep-14 08:30N 47°38' W 002°46'0 0.0
2017-Sep-14 08:01N 47°38' W 002°46'0 0.0
2017-Sep-14 07:30N 47°38' W 002°46'0 0.0
2017-Sep-14 07:00N 47°38' W 002°46'0 0.0
2017-Sep-14 06:30N 47°38' W 002°46'0 0.0
2017-Sep-14 06:00N 47°38' W 002°46'0 0.0
2017-Sep-14 05:31N 47°38' W 002°46'0 0.0
2017-Sep-14 05:00N 47°38' W 002°46'0 0.0
2017-Sep-14 04:30N 47°38' W 002°46'0 0.0
2017-Sep-14 04:00N 47°38' W 002°46'0 0.0
2017-Sep-14 03:30N 47°38' W 002°46'0 0.0
2017-Sep-14 03:00N 47°38' W 002°46'0 0.0
2017-Sep-14 02:31N 47°38' W 002°46'0 0.0
2017-Sep-14 02:00N 47°38' W 002°46'0 0.0
2017-Sep-14 01:30N 47°38' W 002°46'0 0.0
2017-Sep-14 01:00N 47°38' W 002°46'0 0.0
2017-Sep-14 00:31N 47°38' W 002°46'0 0.0
2017-Sep-14 00:00N 47°38' W 002°46'0 0.0
2017-Sep-13 23:31N 47°38' W 002°46'0 0.0
2017-Sep-13 23:01N 47°38' W 002°46'0 0.0
2017-Sep-13 22:30N 47°38' W 002°46'0 0.0
2017-Sep-13 22:00N 47°38' W 002°46'0 0.0
2017-Sep-13 21:31N 47°38' W 002°46'0 0.0
2017-Sep-13 21:00N 47°38' W 002°46'0 0.0
2017-Sep-13 20:30N 47°38' W 002°46'0 0.0
2017-Sep-13 20:00N 47°38' W 002°46'0 0.0
2017-Sep-13 19:30N 47°38' W 002°46'0 0.0
2017-Sep-13 19:00N 47°38' W 002°46'0 0.0
2017-Sep-13 18:30N 47°38' W 002°46'0 0.0
2017-Sep-13 18:00N 47°38' W 002°46'0 0.0
2017-Sep-13 17:30N 47°38' W 002°46'0 0.0
2017-Sep-13 17:01N 47°38' W 002°46'0 0.0
2017-Sep-13 16:30N 47°38' W 002°46'0 0.0
2017-Sep-13 16:01N 47°38' W 002°46'0 0.0
2017-Sep-13 15:30N 47°38' W 002°46'0 0.0
2017-Sep-13 15:01N 47°38' W 002°46'0 0.0
2017-Sep-13 14:31N 47°38' W 002°46'0 0.0
2017-Sep-13 14:00N 47°38' W 002°46'0 0.0
2017-Sep-13 13:30N 47°38' W 002°46'0 0.0
2017-Sep-13 13:01N 47°38' W 002°46'0 0.0
2017-Sep-13 12:30N 47°38' W 002°46'0 0.0
2017-Sep-13 12:00N 47°38' W 002°46'0 0.0
2017-Sep-13 11:30N 47°38' W 002°46'0 0.0
2017-Sep-13 11:01N 47°38' W 002°46'0 0.0
2017-Sep-13 10:30N 47°38' W 002°46'0 0.0
2017-Sep-13 10:00N 47°38' W 002°46'0 0.0
2017-Sep-13 09:31N 47°38' W 002°46'0 0.0
2017-Sep-13 09:00N 47°38' W 002°46'0 0.0
2017-Sep-13 08:31N 47°38' W 002°46'0 0.0
2017-Sep-13 08:00N 47°38' W 002°46'0 0.0
2017-Sep-13 07:30N 47°38' W 002°46'0 0.0
2017-Sep-13 07:00N 47°38' W 002°46'0 0.0
2017-Sep-13 06:30N 47°38' W 002°46'0 0.0
2017-Sep-13 06:00N 47°38' W 002°46'0 0.0
2017-Sep-13 05:30N 47°38' W 002°46'0 0.0
2017-Sep-13 05:00N 47°38' W 002°46'0 0.0
2017-Sep-13 04:30N 47°38' W 002°46'0 0.0
2017-Sep-13 04:01N 47°38' W 002°46'0 0.0
2017-Sep-13 03:30N 47°38' W 002°46'0 0.0
2017-Sep-13 03:00N 47°38' W 002°46'0 0.0
2017-Sep-13 02:30N 47°38' W 002°46'0 0.0
2017-Sep-13 02:00N 47°38' W 002°46'0 0.0
2017-Sep-13 01:31N 47°38' W 002°46'0 0.0
2017-Sep-13 01:01N 47°38' W 002°46'0 0.0
2017-Sep-13 00:30N 47°38' W 002°46'0 0.0
2017-Sep-13 00:00N 47°38' W 002°46'0 0.0
2017-Sep-12 23:30N 47°38' W 002°46'0 0.0
2017-Sep-12 23:01N 47°38' W 002°46'0 0.0
2017-Sep-12 22:30N 47°38' W 002°46'0 0.0
2017-Sep-12 22:00N 47°38' W 002°46'0 0.0
2017-Sep-12 21:30N 47°38' W 002°46'0 0.0
2017-Sep-12 21:00N 47°38' W 002°46'0 0.0
2017-Sep-12 20:30N 47°38' W 002°46'0 0.0
2017-Sep-12 20:01N 47°38' W 002°46'0 0.0
2017-Sep-12 19:31N 47°38' W 002°46'0 0.0
2017-Sep-12 19:00N 47°38' W 002°46'0 0.0
2017-Sep-12 18:30N 47°38' W 002°46'0 0.0
2017-Sep-12 18:00N 47°38' W 002°46'0 0.0
2017-Sep-12 17:31N 47°38' W 002°46'0 0.4
2017-Sep-12 17:01N 47°38' W 002°46'2 5.0
2017-Sep-12 16:30N 47°37' W 002°49'4 8.4
2017-Sep-12 16:00N 47°34' W 002°54'3 6.8
2017-Sep-12 15:30N 47°31' W 002°56'511.0
2017-Sep-12 15:00N 47°27' W 003°01'4 7.7
2017-Sep-12 14:30N 47°28' W 003°07'1 1.7
2017-Sep-12 14:00N 47°29' W 003°07'0 0.0
2017-Sep-12 13:30N 47°29' W 003°07'0 0.1
2017-Sep-12 13:00N 47°29' W 003°07'5 9.6
2017-Sep-12 12:30N 47°24' W 003°08'3 6.1
2017-Sep-12 12:00N 47°21' W 003°09'1 1.7
2017-Sep-12 11:30N 47°22' W 003°09'510.3
2017-Sep-12 11:00N 47°27' W 003°08'2 3.7
2017-Sep-12 10:31N 47°29' W 003°07'5 9.6
2017-Sep-12 10:00N 47°24' W 003°08'3 6.1
2017-Sep-12 09:30N 47°21' W 003°09'4 7.4
2017-Sep-12 09:00N 47°24' W 003°09'4 8.6
2017-Sep-12 08:31N 47°29' W 003°07'0 0.1
2017-Sep-12 08:00N 47°29' W 003°07'0 0.0
2017-Sep-12 07:30N 47°29' W 003°07'4 7.0
2017-Sep-12 07:00N 47°25' W 003°07'4 9.0
2017-Sep-12 06:30N 47°21' W 003°09'0 0.2
2017-Sep-12 05:14N 47°21' W 003°09'0 0.0
2017-Sep-12 04:45N 47°21' W 003°09'0 0.0
2017-Sep-12 04:30N 47°21' W 003°09'0 0.0
2017-Sep-12 04:00N 47°21' W 003°09'0 0.0
2017-Sep-12 03:29N 47°21' W 003°09'0 0.0
2017-Sep-12 03:00N 47°21' W 003°09'  

Dump ship's entire track history